sensor_id;sensor_type;location;lat;lon;timestamp;temperature;humidity
7366;DHT22;3723;52.220;8.792;2022-09-20T00:01:25;8.00;99.90
7366;DHT22;3723;52.220;8.792;2022-09-20T00:03:54;7.90;99.90
7366;DHT22;3723;52.220;8.792;2022-09-20T00:06:23;7.90;99.90
7366;DHT22;3723;52.220;8.792;2022-09-20T00:08:52;7.80;99.90
7366;DHT22;3723;52.220;8.792;2022-09-20T00:11:21;7.70;99.90
7366;DHT22;3723;52.220;8.792;2022-09-20T00:13:50;7.60;99.90
7366;DHT22;3723;52.220;8.792;2022-09-20T00:16:19;7.70;1.00
7366;DHT22;3723;52.220;8.792;2022-09-20T00:18:47;7.70;1.00
7366;DHT22;3723;52.220;8.792;2022-09-20T00:21:16;7.70;1.00
7366;DHT22;3723;52.220;8.792;2022-09-20T00:23:43;7.70;1.00
7366;DHT22;3723;52.220;8.792;2022-09-20T00:26:13;7.70;1.00
7366;DHT22;3723;52.220;8.792;2022-09-20T00:28:40;7.70;1.00
7366;DHT22;3723;52.220;8.792;2022-09-20T00:31:09;7.70;1.00
7366;DHT22;3723;52.220;8.792;2022-09-20T00:33:37;7.70;1.00
7366;DHT22;3723;52.220;8.792;2022-09-20T00:36:21;7.70;1.00
7366;DHT22;3723;52.220;8.792;2022-09-20T00:38:48;7.60;1.00
7366;DHT22;3723;52.220;8.792;2022-09-20T00:41:16;7.60;1.00
7366;DHT22;3723;52.220;8.792;2022-09-20T00:43:44;7.60;1.00
7366;DHT22;3723;52.220;8.792;2022-09-20T00:46:19;7.70;1.00
7366;DHT22;3723;52.220;8.792;2022-09-20T00:48:48;7.80;1.00
7366;DHT22;3723;52.220;8.792;2022-09-20T00:51:21;7.90;1.00
7366;DHT22;3723;52.220;8.792;2022-09-20T00:53:50;7.90;1.00
7366;DHT22;3723;52.220;8.792;2022-09-20T00:56:23;8.00;1.00
7366;DHT22;3723;52.220;8.792;2022-09-20T00:59:07;8.00;1.00
7366;DHT22;3723;52.220;8.792;2022-09-20T01:01:36;8.10;1.00
7366;DHT22;3723;52.220;8.792;2022-09-20T01:04:03;8.10;1.00
7366;DHT22;3723;52.220;8.792;2022-09-20T01:06:31;8.30;1.00
7366;DHT22;3723;52.220;8.792;2022-09-20T01:09:01;8.30;1.00
7366;DHT22;3723;52.220;8.792;2022-09-20T01:11:30;8.30;1.00
7366;DHT22;3723;52.220;8.792;2022-09-20T01:13:57;8.40;1.00
7366;DHT22;3723;52.220;8.792;2022-09-20T01:16:24;8.40;1.00
7366;DHT22;3723;52.220;8.792;2022-09-20T01:18:55;8.40;1.00
7366;DHT22;3723;52.220;8.792;2022-09-20T01:21:25;8.40;99.90
7366;DHT22;3723;52.220;8.792;2022-09-20T01:23:58;8.40;99.90
7366;DHT22;3723;52.220;8.792;2022-09-20T01:26:45;8.40;99.90
7366;DHT22;3723;52.220;8.792;2022-09-20T01:29:29;8.50;99.90
7366;DHT22;3723;52.220;8.792;2022-09-20T01:32:02;8.50;1.00
7366;DHT22;3723;52.220;8.792;2022-09-20T01:34:34;8.60;99.90
7366;DHT22;3723;52.220;8.792;2022-09-20T01:37:05;8.60;99.90
7366;DHT22;3723;52.220;8.792;2022-09-20T01:39:41;8.70;99.90
7366;DHT22;3723;52.220;8.792;2022-09-20T01:42:13;8.70;99.90
7366;DHT22;3723;52.220;8.792;2022-09-20T01:44:50;8.70;99.90
7366;DHT22;3723;52.220;8.792;2022-09-20T01:47:28;8.70;99.90
7366;DHT22;3723;52.220;8.792;2022-09-20T01:50:06;8.70;99.90
7366;DHT22;3723;52.220;8.792;2022-09-20T01:52:56;8.70;99.90
7366;DHT22;3723;52.220;8.792;2022-09-20T01:55:57;8.70;99.90
7366;DHT22;3723;52.220;8.792;2022-09-20T02:02:09;8.70;99.90
7366;DHT22;3723;52.220;8.792;2022-09-20T02:05:09;8.70;99.90
7366;DHT22;3723;52.220;8.792;2022-09-20T02:08:05;8.70;99.90
7366;DHT22;3723;52.220;8.792;2022-09-20T02:13:58;8.70;99.90
7366;DHT22;3723;52.220;8.792;2022-09-20T02:16:42;8.70;99.90
7366;DHT22;3723;52.220;8.792;2022-09-20T02:22:28;8.80;99.90
7366;DHT22;3723;52.220;8.792;2022-09-20T02:25:05;8.80;99.90
7366;DHT22;3723;52.220;8.792;2022-09-20T02:27:39;8.80;99.90
7366;DHT22;3723;52.220;8.792;2022-09-20T02:30:18;8.80;99.90
7366;DHT22;3723;52.220;8.792;2022-09-20T02:33:10;8.80;87.90
7366;DHT22;3723;52.220;8.792;2022-09-20T02:35:50;8.80;97.40
7366;DHT22;3723;52.220;8.792;2022-09-20T02:38:32;8.80;1.00
7366;DHT22;3723;52.220;8.792;2022-09-20T02:41:46;8.80;1.00
7366;DHT22;3723;52.220;8.792;2022-09-20T02:44:25;8.80;1.00
7366;DHT22;3723;52.220;8.792;2022-09-20T02:46:59;8.90;1.00
7366;DHT22;3723;52.220;8.792;2022-09-20T02:49:37;8.90;1.00
7366;DHT22;3723;52.220;8.792;2022-09-20T02:52:13;8.80;1.00
7366;DHT22;3723;52.220;8.792;2022-09-20T02:54:47;8.80;1.00
7366;DHT22;3723;52.220;8.792;2022-09-20T02:57:24;8.80;1.00
7366;DHT22;3723;52.220;8.792;2022-09-20T02:59:57;8.80;1.00
7366;DHT22;3723;52.220;8.792;2022-09-20T03:02:30;8.90;1.00
7366;DHT22;3723;52.220;8.792;2022-09-20T03:05:13;8.90;1.00
7366;DHT22;3723;52.220;8.792;2022-09-20T03:07:55;8.90;1.00
7366;DHT22;3723;52.220;8.792;2022-09-20T03:10:28;8.80;1.00
7366;DHT22;3723;52.220;8.792;2022-09-20T03:13:09;8.80;1.00
7366;DHT22;3723;52.220;8.792;2022-09-20T03:15:47;8.80;1.00
7366;DHT22;3723;52.220;8.792;2022-09-20T03:18:25;8.90;1.00
7366;DHT22;3723;52.220;8.792;2022-09-20T03:21:01;8.90;1.00
7366;DHT22;3723;52.220;8.792;2022-09-20T03:23:43;8.90;1.00
7366;DHT22;3723;52.220;8.792;2022-09-20T03:26:20;8.90;1.00
7366;DHT22;3723;52.220;8.792;2022-09-20T03:28:57;8.90;1.00
7366;DHT22;3723;52.220;8.792;2022-09-20T03:31:45;8.90;1.00
7366;DHT22;3723;52.220;8.792;2022-09-20T03:34:27;8.90;1.00
7366;DHT22;3723;52.220;8.792;2022-09-20T03:37:09;8.90;1.00
7366;DHT22;3723;52.220;8.792;2022-09-20T03:40:10;8.90;1.00
7366;DHT22;3723;52.220;8.792;2022-09-20T03:42:45;8.90;1.00
7366;DHT22;3723;52.220;8.792;2022-09-20T03:45:28;8.90;1.00
7366;DHT22;3723;52.220;8.792;2022-09-20T03:48:10;8.90;1.00
7366;DHT22;3723;52.220;8.792;2022-09-20T03:51:08;8.80;1.00
7366;DHT22;3723;52.220;8.792;2022-09-20T03:54:01;8.70;1.00
7366;DHT22;3723;52.220;8.792;2022-09-20T03:57:02;8.60;1.00
7366;DHT22;3723;52.220;8.792;2022-09-20T03:59:50;8.40;1.00
7366;DHT22;3723;52.220;8.792;2022-09-20T04:02:47;8.20;1.00
7366;DHT22;3723;52.220;8.792;2022-09-20T04:05:22;8.10;1.00
7366;DHT22;3723;52.220;8.792;2022-09-20T04:08:04;7.90;1.00
7366;DHT22;3723;52.220;8.792;2022-09-20T04:10:44;7.80;1.00
7366;DHT22;3723;52.220;8.792;2022-09-20T04:13:29;7.70;1.00
7366;DHT22;3723;52.220;8.792;2022-09-20T04:18:49;7.70;1.00
7366;DHT22;3723;52.220;8.792;2022-09-20T04:21:24;7.70;94.00
7366;DHT22;3723;52.220;8.792;2022-09-20T04:23:58;7.60;99.90
7366;DHT22;3723;52.220;8.792;2022-09-20T04:26:28;7.50;99.90
7366;DHT22;3723;52.220;8.792;2022-09-20T04:29:01;7.40;99.90
7366;DHT22;3723;52.220;8.792;2022-09-20T04:31:38;7.40;99.90
7366;DHT22;3723;52.220;8.792;2022-09-20T04:34:12;7.40;99.90
7366;DHT22;3723;52.220;8.792;2022-09-20T04:37:14;7.40;99.90
7366;DHT22;3723;52.220;8.792;2022-09-20T04:39:46;7.50;99.90
7366;DHT22;3723;52.220;8.792;2022-09-20T04:45:54;7.60;99.90
7366;DHT22;3723;52.220;8.792;2022-09-20T04:48:51;7.70;99.90
7366;DHT22;3723;52.220;8.792;2022-09-20T04:54:57;7.80;99.90
7366;DHT22;3723;52.220;8.792;2022-09-20T05:01:02;7.60;21.60
7366;DHT22;3723;52.220;8.792;2022-09-20T05:03:57;7.50;62.30
7366;DHT22;3723;52.220;8.792;2022-09-20T05:06:48;7.50;57.00
7366;DHT22;3723;52.220;8.792;2022-09-20T05:09:50;7.40;58.20
7366;DHT22;3723;52.220;8.792;2022-09-20T05:12:51;7.30;63.40
7366;DHT22;3723;52.220;8.792;2022-09-20T05:15:36;7.30;99.90
7366;DHT22;3723;52.220;8.792;2022-09-20T05:21:25;7.40;99.90
7366;DHT22;3723;52.220;8.792;2022-09-20T05:24:08;7.40;99.90
7366;DHT22;3723;52.220;8.792;2022-09-20T05:26:45;7.40;99.90
7366;DHT22;3723;52.220;8.792;2022-09-20T05:29:20;7.30;99.90
7366;DHT22;3723;52.220;8.792;2022-09-20T05:31:53;7.40;99.90
7366;DHT22;3723;52.220;8.792;2022-09-20T05:34:30;7.40;1.00
7366;DHT22;3723;52.220;8.792;2022-09-20T05:37:05;7.50;1.00
7366;DHT22;3723;52.220;8.792;2022-09-20T05:39:37;7.60;1.00
7366;DHT22;3723;52.220;8.792;2022-09-20T05:42:26;7.80;1.00
7366;DHT22;3723;52.220;8.792;2022-09-20T05:45:18;8.10;1.00
7366;DHT22;3723;52.220;8.792;2022-09-20T05:47:54;8.40;21.20
7366;DHT22;3723;52.220;8.792;2022-09-20T05:50:45;8.80;1.00
7366;DHT22;3723;52.220;8.792;2022-09-20T05:53:49;9.30;1.00
7366;DHT22;3723;52.220;8.792;2022-09-20T05:56:31;9.70;1.00
7366;DHT22;3723;52.220;8.792;2022-09-20T05:59:31;10.10;99.90
7366;DHT22;3723;52.220;8.792;2022-09-20T06:02:13;10.40;1.00
7366;DHT22;3723;52.220;8.792;2022-09-20T06:04:51;10.60;1.00
7366;DHT22;3723;52.220;8.792;2022-09-20T06:07:40;10.60;1.00
7366;DHT22;3723;52.220;8.792;2022-09-20T06:10:26;10.60;1.00
7366;DHT22;3723;52.220;8.792;2022-09-20T06:13:11;10.50;1.00
7366;DHT22;3723;52.220;8.792;2022-09-20T06:15:46;10.40;1.00
7366;DHT22;3723;52.220;8.792;2022-09-20T06:18:23;10.40;1.00
7366;DHT22;3723;52.220;8.792;2022-09-20T06:21:06;10.40;1.00
7366;DHT22;3723;52.220;8.792;2022-09-20T06:23:36;10.30;99.90
7366;DHT22;3723;52.220;8.792;2022-09-20T06:26:06;10.20;99.90
7366;DHT22;3723;52.220;8.792;2022-09-20T06:28:38;10.10;99.90
7366;DHT22;3723;52.220;8.792;2022-09-20T06:31:07;10.10;99.90
7366;DHT22;3723;52.220;8.792;2022-09-20T06:33:41;10.20;99.90
7366;DHT22;3723;52.220;8.792;2022-09-20T06:36:12;10.20;99.90
7366;DHT22;3723;52.220;8.792;2022-09-20T06:39:10;10.40;99.90
7366;DHT22;3723;52.220;8.792;2022-09-20T06:41:59;10.50;99.90
7366;DHT22;3723;52.220;8.792;2022-09-20T06:44:26;10.60;99.90
7366;DHT22;3723;52.220;8.792;2022-09-20T06:46:52;10.50;99.90
7366;DHT22;3723;52.220;8.792;2022-09-20T06:49:24;10.60;99.90
7366;DHT22;3723;52.220;8.792;2022-09-20T06:51:51;10.50;99.90
7366;DHT22;3723;52.220;8.792;2022-09-20T06:54:33;10.50;99.90
7366;DHT22;3723;52.220;8.792;2022-09-20T06:57:12;10.50;99.90
7366;DHT22;3723;52.220;8.792;2022-09-20T06:59:44;10.50;99.90
7366;DHT22;3723;52.220;8.792;2022-09-20T07:02:13;10.40;99.90
7366;DHT22;3723;52.220;8.792;2022-09-20T07:04:39;10.50;99.90
7366;DHT22;3723;52.220;8.792;2022-09-20T07:07:15;10.40;99.90
7366;DHT22;3723;52.220;8.792;2022-09-20T07:09:44;10.50;99.90
7366;DHT22;3723;52.220;8.792;2022-09-20T07:12:11;10.60;99.90
7366;DHT22;3723;52.220;8.792;2022-09-20T07:14:39;10.70;99.90
7366;DHT22;3723;52.220;8.792;2022-09-20T07:17:06;10.70;99.90
7366;DHT22;3723;52.220;8.792;2022-09-20T07:19:33;10.70;99.90
7366;DHT22;3723;52.220;8.792;2022-09-20T07:22:01;10.70;99.90
7366;DHT22;3723;52.220;8.792;2022-09-20T07:24:28;10.80;99.90
7366;DHT22;3723;52.220;8.792;2022-09-20T07:27:00;10.90;99.90
7366;DHT22;3723;52.220;8.792;2022-09-20T07:29:32;11.00;99.90
7366;DHT22;3723;52.220;8.792;2022-09-20T07:32:01;11.10;99.90
7366;DHT22;3723;52.220;8.792;2022-09-20T07:34:32;11.30;99.90
7366;DHT22;3723;52.220;8.792;2022-09-20T07:36:59;11.60;99.90
7366;DHT22;3723;52.220;8.792;2022-09-20T07:39:26;11.70;99.90
7366;DHT22;3723;52.220;8.792;2022-09-20T07:41:58;11.90;99.90
7366;DHT22;3723;52.220;8.792;2022-09-20T07:44:34;12.00;99.90
7366;DHT22;3723;52.220;8.792;2022-09-20T07:47:01;12.10;99.90
7366;DHT22;3723;52.220;8.792;2022-09-20T07:49:30;12.10;99.90
7366;DHT22;3723;52.220;8.792;2022-09-20T07:52:03;12.20;99.90
7366;DHT22;3723;52.220;8.792;2022-09-20T07:54:35;12.20;99.90
7366;DHT22;3723;52.220;8.792;2022-09-20T07:57:03;12.30;99.90
7366;DHT22;3723;52.220;8.792;2022-09-20T07:59:31;12.40;99.90
7366;DHT22;3723;52.220;8.792;2022-09-20T08:01:58;12.50;99.90
7366;DHT22;3723;52.220;8.792;2022-09-20T08:04:25;12.60;99.90
7366;DHT22;3723;52.220;8.792;2022-09-20T08:06:52;12.80;99.90
7366;DHT22;3723;52.220;8.792;2022-09-20T08:09:19;12.90;99.90
7366;DHT22;3723;52.220;8.792;2022-09-20T08:11:47;13.10;99.90
7366;DHT22;3723;52.220;8.792;2022-09-20T08:14:28;13.40;99.90
7366;DHT22;3723;52.220;8.792;2022-09-20T08:17:06;13.90;99.90
7366;DHT22;3723;52.220;8.792;2022-09-20T08:19:44;14.60;99.90
7366;DHT22;3723;52.220;8.792;2022-09-20T08:22:19;15.80;99.90
7366;DHT22;3723;52.220;8.792;2022-09-20T08:24:53;17.10;99.90
7366;DHT22;3723;52.220;8.792;2022-09-20T08:27:23;17.30;99.90
7366;DHT22;3723;52.220;8.792;2022-09-20T08:29:52;17.40;99.90
7366;DHT22;3723;52.220;8.792;2022-09-20T08:32:19;17.10;99.90
7366;DHT22;3723;52.220;8.792;2022-09-20T08:34:49;17.20;99.90
7366;DHT22;3723;52.220;8.792;2022-09-20T08:37:23;17.80;99.90
7366;DHT22;3723;52.220;8.792;2022-09-20T08:39:51;18.50;99.90
7366;DHT22;3723;52.220;8.792;2022-09-20T08:42:23;19.00;99.90
7366;DHT22;3723;52.220;8.792;2022-09-20T08:45:02;19.20;99.90
7366;DHT22;3723;52.220;8.792;2022-09-20T08:47:52;18.90;99.90
7366;DHT22;3723;52.220;8.792;2022-09-20T08:50:31;18.50;99.90
7366;DHT22;3723;52.220;8.792;2022-09-20T08:53:12;18.10;99.90
7366;DHT22;3723;52.220;8.792;2022-09-20T08:55:43;17.80;99.90
7366;DHT22;3723;52.220;8.792;2022-09-20T08:58:15;17.50;99.90
7366;DHT22;3723;52.220;8.792;2022-09-20T09:00:45;17.20;99.90
7366;DHT22;3723;52.220;8.792;2022-09-20T09:03:14;17.00;99.90
7366;DHT22;3723;52.220;8.792;2022-09-20T09:05:44;16.90;99.90
7366;DHT22;3723;52.220;8.792;2022-09-20T09:08:13;17.10;99.90
7366;DHT22;3723;52.220;8.792;2022-09-20T09:10:45;17.60;99.90
7366;DHT22;3723;52.220;8.792;2022-09-20T09:13:31;18.00;99.90
7366;DHT22;3723;52.220;8.792;2022-09-20T09:16:10;18.10;99.90
7366;DHT22;3723;52.220;8.792;2022-09-20T09:18:51;18.20;99.90
7366;DHT22;3723;52.220;8.792;2022-09-20T09:21:28;18.20;99.90
7366;DHT22;3723;52.220;8.792;2022-09-20T09:24:02;18.10;99.90
7366;DHT22;3723;52.220;8.792;2022-09-20T09:26:40;17.90;99.90
7366;DHT22;3723;52.220;8.792;2022-09-20T09:29:17;17.90;99.90
7366;DHT22;3723;52.220;8.792;2022-09-20T09:31:54;18.00;99.90
7366;DHT22;3723;52.220;8.792;2022-09-20T09:34:33;18.20;99.90
7366;DHT22;3723;52.220;8.792;2022-09-20T09:37:14;18.40;99.90
7366;DHT22;3723;52.220;8.792;2022-09-20T09:40:06;18.50;99.90
7366;DHT22;3723;52.220;8.792;2022-09-20T09:42:33;18.40;99.90
7366;DHT22;3723;52.220;8.792;2022-09-20T09:45:22;18.10;99.90
7366;DHT22;3723;52.220;8.792;2022-09-20T09:48:00;17.80;99.90
7366;DHT22;3723;52.220;8.792;2022-09-20T09:50:33;17.40;99.90
7366;DHT22;3723;52.220;8.792;2022-09-20T09:53:10;17.00;99.90
7366;DHT22;3723;52.220;8.792;2022-09-20T09:56:13;16.80;99.90
7366;DHT22;3723;52.220;8.792;2022-09-20T09:59:20;16.80;99.90
7366;DHT22;3723;52.220;8.792;2022-09-20T10:02:10;16.80;99.90
7366;DHT22;3723;52.220;8.792;2022-09-20T10:05:03;16.80;99.90
7366;DHT22;3723;52.220;8.792;2022-09-20T10:07:46;16.80;99.90
7366;DHT22;3723;52.220;8.792;2022-09-20T10:10:29;16.80;99.90
7366;DHT22;3723;52.220;8.792;2022-09-20T10:13:27;17.00;99.90
7366;DHT22;3723;52.220;8.792;2022-09-20T10:16:03;17.30;99.90
7366;DHT22;3723;52.220;8.792;2022-09-20T10:18:46;17.60;99.90
7366;DHT22;3723;52.220;8.792;2022-09-20T10:21:34;18.10;99.90
7366;DHT22;3723;52.220;8.792;2022-09-20T10:24:14;18.30;99.90
7366;DHT22;3723;52.220;8.792;2022-09-20T10:27:30;18.70;99.90
7366;DHT22;3723;52.220;8.792;2022-09-20T10:30:17;19.20;99.90
7366;DHT22;3723;52.220;8.792;2022-09-20T10:32:57;19.30;99.90
7366;DHT22;3723;52.220;8.792;2022-09-20T10:35:35;19.20;99.90
7366;DHT22;3723;52.220;8.792;2022-09-20T10:38:35;19.50;99.90
7366;DHT22;3723;52.220;8.792;2022-09-20T10:41:25;19.90;99.90
7366;DHT22;3723;52.220;8.792;2022-09-20T10:44:40;21.20;99.90
7366;DHT22;3723;52.220;8.792;2022-09-20T10:47:31;22.20;99.90
7366;DHT22;3723;52.220;8.792;2022-09-20T10:50:06;22.70;99.90
7366;DHT22;3723;52.220;8.792;2022-09-20T10:53:02;23.20;99.90
7366;DHT22;3723;52.220;8.792;2022-09-20T10:55:39;23.70;99.90
7366;DHT22;3723;52.220;8.792;2022-09-20T10:58:40;23.60;99.90
7366;DHT22;3723;52.220;8.792;2022-09-20T11:01:35;23.00;99.90
7366;DHT22;3723;52.220;8.792;2022-09-20T11:04:49;22.30;99.90
7366;DHT22;3723;52.220;8.792;2022-09-20T11:07:27;21.60;99.90
7366;DHT22;3723;52.220;8.792;2022-09-20T11:10:03;21.30;99.90
7366;DHT22;3723;52.220;8.792;2022-09-20T11:12:37;20.90;99.90
7366;DHT22;3723;52.220;8.792;2022-09-20T11:15:15;21.00;99.90
7366;DHT22;3723;52.220;8.792;2022-09-20T11:17:51;21.40;99.90
7366;DHT22;3723;52.220;8.792;2022-09-20T11:20:23;21.80;99.90
7366;DHT22;3723;52.220;8.792;2022-09-20T11:22:55;22.70;99.90
7366;DHT22;3723;52.220;8.792;2022-09-20T11:25:29;23.70;99.90
7366;DHT22;3723;52.220;8.792;2022-09-20T11:28:03;24.20;99.90
7366;DHT22;3723;52.220;8.792;2022-09-20T11:30:39;24.10;99.90
7366;DHT22;3723;52.220;8.792;2022-09-20T11:33:13;23.80;99.90
7366;DHT22;3723;52.220;8.792;2022-09-20T11:35:45;24.10;99.90
7366;DHT22;3723;52.220;8.792;2022-09-20T11:38:20;24.40;99.90
7366;DHT22;3723;52.220;8.792;2022-09-20T11:40:54;24.80;99.90
7366;DHT22;3723;52.220;8.792;2022-09-20T11:43:25;24.90;99.90
7366;DHT22;3723;52.220;8.792;2022-09-20T11:45:57;25.10;99.90
7366;DHT22;3723;52.220;8.792;2022-09-20T11:48:27;25.30;99.90
7366;DHT22;3723;52.220;8.792;2022-09-20T11:51:14;25.20;99.90
7366;DHT22;3723;52.220;8.792;2022-09-20T11:56:37;25.30;99.90
7366;DHT22;3723;52.220;8.792;2022-09-20T11:59:18;24.00;99.90
7366;DHT22;3723;52.220;8.792;2022-09-20T12:01:46;22.90;99.90
7366;DHT22;3723;52.220;8.792;2022-09-20T12:04:23;22.20;99.90
7366;DHT22;3723;52.220;8.792;2022-09-20T12:06:58;22.40;99.90
7366;DHT22;3723;52.220;8.792;2022-09-20T12:09:29;23.00;99.90
7366;DHT22;3723;52.220;8.792;2022-09-20T12:11:57;23.60;99.90
7366;DHT22;3723;52.220;8.792;2022-09-20T12:14:28;24.10;99.90
7366;DHT22;3723;52.220;8.792;2022-09-20T12:16:57;24.90;99.90
7366;DHT22;3723;52.220;8.792;2022-09-20T12:19:37;25.80;99.90
7366;DHT22;3723;52.220;8.792;2022-09-20T12:22:26;26.40;99.90
7366;DHT22;3723;52.220;8.792;2022-09-20T12:30:17;28.70;99.90
7366;DHT22;3723;52.220;8.792;2022-09-20T12:32:54;28.90;99.90
7366;DHT22;3723;52.220;8.792;2022-09-20T12:35:59;28.30;99.90
7366;DHT22;3723;52.220;8.792;2022-09-20T12:38:58;26.80;99.90
7366;DHT22;3723;52.220;8.792;2022-09-20T12:41:26;26.20;99.90
7366;DHT22;3723;52.220;8.792;2022-09-20T12:44:03;26.20;99.90
7366;DHT22;3723;52.220;8.792;2022-09-20T12:46:48;25.50;99.90
7366;DHT22;3723;52.220;8.792;2022-09-20T16:52:45;12.10;99.90
7366;DHT22;3723;52.220;8.792;2022-09-20T16:55:12;11.90;99.90
7366;DHT22;3723;52.220;8.792;2022-09-20T16:57:39;11.70;99.90
7366;DHT22;3723;52.220;8.792;2022-09-20T17:00:07;11.50;99.90
7366;DHT22;3723;52.220;8.792;2022-09-20T17:02:35;11.30;99.90
7366;DHT22;3723;52.220;8.792;2022-09-20T17:05:02;11.10;99.90
7366;DHT22;3723;52.220;8.792;2022-09-20T17:07:29;10.90;99.90
7366;DHT22;3723;52.220;8.792;2022-09-20T17:09:59;10.70;99.90
7366;DHT22;3723;52.220;8.792;2022-09-20T17:12:27;10.50;99.90
7366;DHT22;3723;52.220;8.792;2022-09-20T17:14:57;10.30;99.90
7366;DHT22;3723;52.220;8.792;2022-09-20T17:17:24;10.10;99.90
7366;DHT22;3723;52.220;8.792;2022-09-20T17:19:51;9.90;99.90
7366;DHT22;3723;52.220;8.792;2022-09-20T17:22:18;9.70;99.90
7366;DHT22;3723;52.220;8.792;2022-09-20T17:24:44;9.50;99.90
7366;DHT22;3723;52.220;8.792;2022-09-20T17:27:12;9.40;99.90
7366;DHT22;3723;52.220;8.792;2022-09-20T17:29:39;9.30;1.00
7366;DHT22;3723;52.220;8.792;2022-09-20T17:32:06;9.10;1.00
7366;DHT22;3723;52.220;8.792;2022-09-20T17:34:33;8.90;1.00
7366;DHT22;3723;52.220;8.792;2022-09-20T17:37:00;8.90;1.00
7366;DHT22;3723;52.220;8.792;2022-09-20T17:39:27;8.70;1.00
7366;DHT22;3723;52.220;8.792;2022-09-20T17:41:54;8.60;1.00
7366;DHT22;3723;52.220;8.792;2022-09-20T17:44:23;8.50;1.00
7366;DHT22;3723;52.220;8.792;2022-09-20T17:46:50;8.40;80.10
7366;DHT22;3723;52.220;8.792;2022-09-20T17:49:19;8.30;99.90
7366;DHT22;3723;52.220;8.792;2022-09-20T17:51:48;8.20;99.90
7366;DHT22;3723;52.220;8.792;2022-09-20T17:54:15;8.10;99.90
7366;DHT22;3723;52.220;8.792;2022-09-20T17:56:44;8.00;99.90
7366;DHT22;3723;52.220;8.792;2022-09-20T17:59:12;7.90;99.90
7366;DHT22;3723;52.220;8.792;2022-09-20T18:01:43;7.90;1.00
7366;DHT22;3723;52.220;8.792;2022-09-20T18:04:11;7.80;1.00
7366;DHT22;3723;52.220;8.792;2022-09-20T18:06:39;7.80;16.10
7366;DHT22;3723;52.220;8.792;2022-09-20T18:09:08;7.90;99.90
7366;DHT22;3723;52.220;8.792;2022-09-20T18:11:38;7.80;99.90
7366;DHT22;3723;52.220;8.792;2022-09-20T18:14:06;7.80;99.90
7366;DHT22;3723;52.220;8.792;2022-09-20T18:16:35;7.90;99.90
7366;DHT22;3723;52.220;8.792;2022-09-20T18:19:05;7.90;99.90
7366;DHT22;3723;52.220;8.792;2022-09-20T18:21:33;7.90;99.90
7366;DHT22;3723;52.220;8.792;2022-09-20T18:24:03;7.90;1.00
7366;DHT22;3723;52.220;8.792;2022-09-20T18:26:31;8.10;1.00
7366;DHT22;3723;52.220;8.792;2022-09-20T18:29:00;8.10;99.90
7366;DHT22;3723;52.220;8.792;2022-09-20T18:31:28;8.20;99.90
7366;DHT22;3723;52.220;8.792;2022-09-20T18:33:58;8.30;99.90
7366;DHT22;3723;52.220;8.792;2022-09-20T18:36:28;8.30;99.90
7366;DHT22;3723;52.220;8.792;2022-09-20T18:38:56;8.30;99.90
7366;DHT22;3723;52.220;8.792;2022-09-20T18:41:25;8.40;99.90
7366;DHT22;3723;52.220;8.792;2022-09-20T18:43:53;8.50;99.90
7366;DHT22;3723;52.220;8.792;2022-09-20T18:46:21;8.40;99.90
7366;DHT22;3723;52.220;8.792;2022-09-20T18:48:52;8.50;99.90
7366;DHT22;3723;52.220;8.792;2022-09-20T18:51:20;8.40;99.90
7366;DHT22;3723;52.220;8.792;2022-09-20T18:53:50;8.40;99.90
7366;DHT22;3723;52.220;8.792;2022-09-20T18:56:22;8.30;99.90
7366;DHT22;3723;52.220;8.792;2022-09-20T18:58:51;8.30;99.90
7366;DHT22;3723;52.220;8.792;2022-09-20T19:01:43;8.30;99.90
7366;DHT22;3723;52.220;8.792;2022-09-20T19:04:29;8.20;99.90
7366;DHT22;3723;52.220;8.792;2022-09-20T19:07:06;8.10;99.90
7366;DHT22;3723;52.220;8.792;2022-09-20T19:09:45;8.00;99.90
7366;DHT22;3723;52.220;8.792;2022-09-20T19:12:22;7.80;99.90
7366;DHT22;3723;52.220;8.792;2022-09-20T19:15:11;7.70;37.20
7366;DHT22;3723;52.220;8.792;2022-09-20T19:17:59;7.60;91.00
7366;DHT22;3723;52.220;8.792;2022-09-20T19:20:32;7.40;89.20
7366;DHT22;3723;52.220;8.792;2022-09-20T19:23:09;7.40;99.90
7366;DHT22;3723;52.220;8.792;2022-09-20T19:25:42;7.40;99.90
7366;DHT22;3723;52.220;8.792;2022-09-20T19:28:12;7.40;99.90
7366;DHT22;3723;52.220;8.792;2022-09-20T19:30:40;7.40;99.90
7366;DHT22;3723;52.220;8.792;2022-09-20T19:33:13;7.30;1.00
7366;DHT22;3723;52.220;8.792;2022-09-20T19:35:45;7.30;1.00
7366;DHT22;3723;52.220;8.792;2022-09-20T19:38:21;7.20;1.00
7366;DHT22;3723;52.220;8.792;2022-09-20T19:40:58;7.20;1.00
7366;DHT22;3723;52.220;8.792;2022-09-20T19:43:41;7.20;1.00
7366;DHT22;3723;52.220;8.792;2022-09-20T19:46:17;7.10;1.00
7366;DHT22;3723;52.220;8.792;2022-09-20T19:48:55;7.00;1.00
7366;DHT22;3723;52.220;8.792;2022-09-20T19:51:28;6.90;1.00
7366;DHT22;3723;52.220;8.792;2022-09-20T19:53:58;6.80;1.00
7366;DHT22;3723;52.220;8.792;2022-09-20T19:56:32;6.70;1.00
7366;DHT22;3723;52.220;8.792;2022-09-20T19:59:04;6.70;1.00
7366;DHT22;3723;52.220;8.792;2022-09-20T20:01:32;6.70;1.00
7366;DHT22;3723;52.220;8.792;2022-09-20T20:04:00;6.60;1.00
7366;DHT22;3723;52.220;8.792;2022-09-20T20:06:32;6.60;1.00
7366;DHT22;3723;52.220;8.792;2022-09-20T20:09:06;6.70;99.90
7366;DHT22;3723;52.220;8.792;2022-09-20T20:11:40;6.70;99.90
7366;DHT22;3723;52.220;8.792;2022-09-20T20:14:17;6.60;99.90
7366;DHT22;3723;52.220;8.792;2022-09-20T20:16:58;6.60;99.90
7366;DHT22;3723;52.220;8.792;2022-09-20T20:19:52;6.60;99.90
7366;DHT22;3723;52.220;8.792;2022-09-20T20:22:31;6.60;99.90
7366;DHT22;3723;52.220;8.792;2022-09-20T20:25:02;6.50;99.90
7366;DHT22;3723;52.220;8.792;2022-09-20T20:27:31;6.50;99.90
7366;DHT22;3723;52.220;8.792;2022-09-20T20:29:58;6.40;17.60
7366;DHT22;3723;52.220;8.792;2022-09-20T20:32:25;6.40;46.80
7366;DHT22;3723;52.220;8.792;2022-09-20T20:34:52;6.30;99.90
7366;DHT22;3723;52.220;8.792;2022-09-20T20:37:19;6.30;99.90
7366;DHT22;3723;52.220;8.792;2022-09-20T20:39:48;6.20;99.90
7366;DHT22;3723;52.220;8.792;2022-09-20T20:42:16;6.10;99.90
7366;DHT22;3723;52.220;8.792;2022-09-20T20:44:45;6.10;99.90
7366;DHT22;3723;52.220;8.792;2022-09-20T20:47:12;6.20;1.00
7366;DHT22;3723;52.220;8.792;2022-09-20T20:49:39;6.20;1.00
7366;DHT22;3723;52.220;8.792;2022-09-20T20:52:06;6.10;1.00
7366;DHT22;3723;52.220;8.792;2022-09-20T20:54:34;6.00;1.00
7366;DHT22;3723;52.220;8.792;2022-09-20T20:57:00;6.00;1.00
7366;DHT22;3723;52.220;8.792;2022-09-20T20:59:27;5.90;1.00
7366;DHT22;3723;52.220;8.792;2022-09-20T21:01:55;5.80;1.00
7366;DHT22;3723;52.220;8.792;2022-09-20T21:04:22;5.80;1.00
7366;DHT22;3723;52.220;8.792;2022-09-20T21:06:49;5.80;1.00
7366;DHT22;3723;52.220;8.792;2022-09-20T21:09:16;5.70;99.90
7366;DHT22;3723;52.220;8.792;2022-09-20T21:11:43;5.70;99.90
7366;DHT22;3723;52.220;8.792;2022-09-20T21:14:12;5.60;99.90
7366;DHT22;3723;52.220;8.792;2022-09-20T21:16:41;5.60;99.90
7366;DHT22;3723;52.220;8.792;2022-09-20T21:19:13;5.50;99.90
7366;DHT22;3723;52.220;8.792;2022-09-20T21:21:43;5.40;99.90
7366;DHT22;3723;52.220;8.792;2022-09-20T21:24:11;5.40;1.00
7366;DHT22;3723;52.220;8.792;2022-09-20T21:26:39;5.40;1.00
7366;DHT22;3723;52.220;8.792;2022-09-20T21:29:09;5.40;1.00
7366;DHT22;3723;52.220;8.792;2022-09-20T21:31:39;5.40;1.00
7366;DHT22;3723;52.220;8.792;2022-09-20T21:34:07;5.30;1.00
7366;DHT22;3723;52.220;8.792;2022-09-20T21:36:38;5.40;1.00
7366;DHT22;3723;52.220;8.792;2022-09-20T21:39:06;5.30;1.00
7366;DHT22;3723;52.220;8.792;2022-09-20T21:41:35;5.30;19.60
7366;DHT22;3723;52.220;8.792;2022-09-20T21:44:03;5.30;99.90
7366;DHT22;3723;52.220;8.792;2022-09-20T21:46:33;5.30;99.90
7366;DHT22;3723;52.220;8.792;2022-09-20T21:49:03;5.30;99.90
7366;DHT22;3723;52.220;8.792;2022-09-20T21:51:31;5.20;99.90